ADDS METAR Data INFO
IDs: Format: Raw Decoded Include TAF

Data at: 2352 UTC 24 Feb 2018

KFWS 242350Z 33006KT 10SM SKC 17/07 A2991
KFWS 242249Z 32007KT 10SM SKC 18/06 A2989
KFWS 242155Z 31010KT 10SM SKC 18/08 A2987
KFWS 242050Z 28012G19KT 7SM FEW030 17/11 A2988
KFWS 241949Z 28014KT 7SM SCT010 15/12 A2988
KFWS 241846Z 28010G16KT 7SM BKN010 12/12 A2991
KFWS 241748Z 26008KT 7SM SCT006 BKN010 11/10 A2990
KFWS 241648Z 24011G21KT 3SM BR BKN006 OVC010 12/11 A2988
KFWS 241550Z 20011G16KT 2SM BR OVC004 17/16 A2984
KFWS 241452Z 18007KT 3SM BR BKN003 OVC008 16/16 A2983
KFWS 241347Z 00000KT 2SM -RA OVC003 12/12 A2983 RMK TSE45
KFWS 241247Z 00000KT 3SM TSRA OVC003 09/09 A2985
KFWS 241235Z AUTO 34005KT 5SM TS BR OVC003 09/09 A2986 RMK AO2 LTG DSNT ALQS P0001 T00910086
KFWS 241215Z AUTO 00000KT 7SM VCTS OVC003 09/09 A2987 RMK AO2 LTG DSNT SW THRU NW T00910087
KFWS 241155Z AUTO 28003KT 4SM RA OVC003 09/08 A2989 RMK AO2 LTG DSNT SW P0009 60010 70011 T00850080 10085 20065
KFWS 241135Z AUTO 13004KT 2SM TSRA OVC003 08/08 A2990 RMK AO2 LTG DSNT SE THRU SW P0006 T00800075
KFWS 241115Z AUTO 00000KT 1 3/4SM RA OVC003 08/07 A2993 RMK AO2 LTG DSNT N S AND NW P0001 T00770072
KFWS 241055Z AUTO 00000KT 1SM -RA BKN003 OVC007 08/07 A2993 RMK AO2 LTG DSNT W T00750071
KFWS 241035Z AUTO 00000KT 1SM -RA OVC003 07/07 A2991 RMK AO2 T00720067
KFWS 241015Z AUTO 00000KT 1 1/4SM -RA OVC003 07/07 A2993 RMK AO2 T00720067
KFWS 240955Z AUTO 00000KT 1SM BR OVC003 07/07 A2994 RMK AO2 T00720067
KFWS 240935Z AUTO 00000KT 1SM BR OVC003 07/07 A2995 RMK AO2 T00720067
KFWS 240915Z AUTO 00000KT 1SM BR OVC003 07/07 A2997 RMK AO2 T00700065
KFWS 240855Z AUTO 00000KT 1SM BR OVC003 07/07 A2998 RMK AO2 P0001 60001 T00700065
KFWS 240835Z AUTO 00000KT 1SM BR OVC003 07/07 A2998 RMK AO2 P0001 T00700065
KFWS 240815Z AUTO 00000KT 1 1/2SM BR OVC003 07/07 A3000 RMK AO2 P0001 T00700065
KFWS 240755Z AUTO 00000KT 1 1/2SM BR OVC003 07/06 A3000 RMK AO2 T00700064
KFWS 240735Z AUTO 00000KT 1 1/2SM BR OVC003 07/06 A3000 RMK AO2 T00680062
KFWS 240715Z AUTO 00000KT 2SM BR OVC005 07/06 A3002 RMK AO2 T00690063
KFWS 240655Z AUTO 31004KT 5SM BR OVC007 07/06 A3003 RMK AO2 LTG DSNT N T00700063
KFWS 240635Z AUTO 35003KT 7SM OVC007 07/06 A3002 RMK AO2 T00670061
KFWS 240615Z AUTO 34003KT 7SM OVC007 07/06 A3002 RMK AO2 T00660060
KFWS 240555Z AUTO 00000KT 7SM OVC007 07/06 A3002 RMK AO2 T00650060 10096 20064 401010035
KFWS 240535Z AUTO 34003KT 7SM SCT003 OVC007 07/06 A3004 RMK AO2 T00650060
KFWS 240515Z AUTO 33005KT 7SM SCT003 OVC009 07/06 A3005 RMK AO2 T00650060
KFWS 240455Z AUTO 32005KT 7SM BKN005 OVC009 07/06 A3006 RMK AO2 T00650060
KFWS 240435Z AUTO 34003KT 10SM BKN005 OVC009 07/06 A3006 RMK AO2 LTG DSNT N T00650060
KFWS 240415Z AUTO 35003KT 7SM -RA OVC007 07/06 A3006 RMK AO2 T00650060
KFWS 240355Z AUTO 32005KT 10SM OVC005 07/06 A3007 RMK AO2 T00660061
KFWS 240335Z AUTO 34006KT 7SM OVC003 07/07 A3007 RMK AO2 LTG DSNT N T00720067
KFWS 240315Z AUTO 34004KT 5SM DZ OVC003 08/08 A3007 RMK AO2 T00820077
KFWS 240255Z AUTO 33003KT 5SM DZ OVC003 08/08 A3007 RMK AO2 T00820077
KFWS 240235Z AUTO 33004KT 3SM DZ OVC003 08/08 A3007 RMK AO2 T00820077
KFWS 240215Z AUTO 33004KT 2SM DZ OVC003 08/08 A3007 RMK AO2 T00820077
KFWS 240155Z AUTO 32005KT 1 3/4SM -RA OVC003 08/08 A3007 RMK AO2 T00830078
KFWS 240053Z 33003KT 3/4SM BR OVC003 09/08 A3006
KFWS 232346Z 00000KT 1/2SM FG OVC003 09/09 A3007
KFWS 232250Z 00000KT 1/2SM FG OVC003 10/09 A3007
KFWS 232150Z 00000KT 1SM BR OVC003 10/09 A3007
KFWS 232054Z 00000KT 2SM BR OVC005 09/09 A3008
KFWS 231950Z 08003KT 2SM BR OVC005 09/08 A3012
KFWS 231852Z 03004KT 1 1/2SM BR OVC003 08/07 A3016
KFWS 231755Z 00000KT 1SM BR OVC003 07/07 A3020
KFWS 231653Z 00000KT 1 1/2SM BR OVC003 06/05 A3024
KFWS 231552Z 00000KT 1 1/2SM BR OVC003 05/04 A3023
KFWS 231448Z 07003KT 1SM BR OVC003 04/04 A3020
KFWS 231348Z 33005KT 3/4SM BR OVC003 04/04 A3022
KFWS 231245Z 36004KT 2SM BR OVC005 04/03 A3022
KFWS 231235Z AUTO 01003KT 3SM BR BKN005 OVC011 04/03 A3022 RMK AO2 T00400031
KFWS 231215Z AUTO 05004KT 4SM BR SCT005 OVC011 04/03 A3022 RMK AO2 LTG DSNT N T00400031
KFWS 231155Z AUTO 00000KT 5SM BR BKN005 OVC011 04/03 A3022 RMK AO2 LTG DSNT N 60068 70122 T00400031 10043 20035